sensor_id;sensor_type;location;lat;lon;timestamp;temperature;humidity
13992;DHT22;7070;53.586;9.692;2023-08-20T00:01:35;17.50;89.40
13992;DHT22;7070;53.586;9.692;2023-08-20T00:04:02;17.40;89.20
13992;DHT22;7070;53.586;9.692;2023-08-20T00:06:30;17.40;89.30
13992;DHT22;7070;53.586;9.692;2023-08-20T00:08:57;17.30;89.30
13992;DHT22;7070;53.586;9.692;2023-08-20T00:11:25;17.30;89.50
13992;DHT22;7070;53.586;9.692;2023-08-20T00:13:52;17.20;89.40
13992;DHT22;7070;53.586;9.692;2023-08-20T00:16:21;17.20;89.40
13992;DHT22;7070;53.586;9.692;2023-08-20T00:18:48;17.10;89.20
13992;DHT22;7070;53.586;9.692;2023-08-20T00:21:16;17.10;89.30
13992;DHT22;7070;53.586;9.692;2023-08-20T00:23:43;17.00;89.20
13992;DHT22;7070;53.586;9.692;2023-08-20T00:26:10;17.00;89.40
13992;DHT22;7070;53.586;9.692;2023-08-20T00:28:37;16.90;89.40
13992;DHT22;7070;53.586;9.692;2023-08-20T00:31:05;16.90;89.40
13992;DHT22;7070;53.586;9.692;2023-08-20T00:33:33;16.90;89.50
13992;DHT22;7070;53.586;9.692;2023-08-20T00:36:00;16.90;89.50
13992;DHT22;7070;53.586;9.692;2023-08-20T00:38:26;16.90;89.60
13992;DHT22;7070;53.586;9.692;2023-08-20T00:40:53;16.80;89.50
13992;DHT22;7070;53.586;9.692;2023-08-20T00:43:20;16.80;89.60
13992;DHT22;7070;53.586;9.692;2023-08-20T00:45:47;16.80;89.60
13992;DHT22;7070;53.586;9.692;2023-08-20T00:48:15;16.70;89.60
13992;DHT22;7070;53.586;9.692;2023-08-20T00:50:44;16.70;89.60
13992;DHT22;7070;53.586;9.692;2023-08-20T00:53:12;16.70;89.60
13992;DHT22;7070;53.586;9.692;2023-08-20T00:55:45;16.70;90.10
13992;DHT22;7070;53.586;9.692;2023-08-20T00:58:12;16.70;89.50
13992;DHT22;7070;53.586;9.692;2023-08-20T01:00:40;16.70;89.60
13992;DHT22;7070;53.586;9.692;2023-08-20T01:03:07;16.60;89.50
13992;DHT22;7070;53.586;9.692;2023-08-20T01:05:41;16.60;89.50
13992;DHT22;7070;53.586;9.692;2023-08-20T01:08:23;16.50;89.40
13992;DHT22;7070;53.586;9.692;2023-08-20T01:10:57;16.60;89.50
13992;DHT22;7070;53.586;9.692;2023-08-20T01:13:25;16.50;89.40
13992;DHT22;7070;53.586;9.692;2023-08-20T01:15:52;16.50;89.60
13992;DHT22;7070;53.586;9.692;2023-08-20T01:18:19;16.50;89.60
13992;DHT22;7070;53.586;9.692;2023-08-20T01:20:51;16.50;89.60
13992;DHT22;7070;53.586;9.692;2023-08-20T01:26:40;16.40;89.60
13992;DHT22;7070;53.586;9.692;2023-08-20T01:29:11;16.40;90.10
13992;DHT22;7070;53.586;9.692;2023-08-20T01:31:38;16.40;89.60
13992;DHT22;7070;53.586;9.692;2023-08-20T01:34:06;16.40;89.70
13992;DHT22;7070;53.586;9.692;2023-08-20T01:36:33;16.30;89.60
13992;DHT22;7070;53.586;9.692;2023-08-20T01:39:00;16.30;89.60
13992;DHT22;7070;53.586;9.692;2023-08-20T01:41:27;16.30;89.70
13992;DHT22;7070;53.586;9.692;2023-08-20T01:43:53;16.30;89.70
13992;DHT22;7070;53.586;9.692;2023-08-20T01:46:22;16.20;89.60
13992;DHT22;7070;53.586;9.692;2023-08-20T01:48:48;16.30;89.70
13992;DHT22;7070;53.586;9.692;2023-08-20T01:51:15;16.30;89.80
13992;DHT22;7070;53.586;9.692;2023-08-20T01:53:42;16.20;89.70
13992;DHT22;7070;53.586;9.692;2023-08-20T01:56:11;16.20;89.90
13992;DHT22;7070;53.586;9.692;2023-08-20T01:58:38;16.20;90.00
13992;DHT22;7070;53.586;9.692;2023-08-20T02:01:05;16.20;90.10
13992;DHT22;7070;53.586;9.692;2023-08-20T02:03:35;16.30;90.30
13992;DHT22;7070;53.586;9.692;2023-08-20T02:06:03;16.30;90.30
13992;DHT22;7070;53.586;9.692;2023-08-20T02:08:29;16.40;90.50
13992;DHT22;7070;53.586;9.692;2023-08-20T02:11:00;16.50;90.60
13992;DHT22;7070;53.586;9.692;2023-08-20T02:13:28;16.60;90.60
13992;DHT22;7070;53.586;9.692;2023-08-20T02:15:59;16.70;90.70
13992;DHT22;7070;53.586;9.692;2023-08-20T02:18:26;16.70;90.60
13992;DHT22;7070;53.586;9.692;2023-08-20T02:20:54;16.90;90.70
13992;DHT22;7070;53.586;9.692;2023-08-20T02:23:21;17.00;90.80
13992;DHT22;7070;53.586;9.692;2023-08-20T02:25:48;17.10;91.10
13992;DHT22;7070;53.586;9.692;2023-08-20T02:28:15;17.20;90.80
13992;DHT22;7070;53.586;9.692;2023-08-20T02:30:44;17.20;90.80
13992;DHT22;7070;53.586;9.692;2023-08-20T02:33:11;17.40;90.80
13992;DHT22;7070;53.586;9.692;2023-08-20T02:35:38;17.40;90.80
13992;DHT22;7070;53.586;9.692;2023-08-20T02:38:06;17.50;90.80
13992;DHT22;7070;53.586;9.692;2023-08-20T02:40:39;17.50;90.70
13992;DHT22;7070;53.586;9.692;2023-08-20T02:43:06;17.60;90.80
13992;DHT22;7070;53.586;9.692;2023-08-20T02:45:39;17.70;91.10
13992;DHT22;7070;53.586;9.692;2023-08-20T02:48:06;17.70;90.80
13992;DHT22;7070;53.586;9.692;2023-08-20T02:50:33;17.80;90.80
13992;DHT22;7070;53.586;9.692;2023-08-20T02:53:00;17.80;90.70
13992;DHT22;7070;53.586;9.692;2023-08-20T02:55:28;17.90;90.80
13992;DHT22;7070;53.586;9.692;2023-08-20T02:57:56;17.90;90.70
13992;DHT22;7070;53.586;9.692;2023-08-20T03:00:22;17.90;90.70
13992;DHT22;7070;53.586;9.692;2023-08-20T03:02:49;18.00;90.70
13992;DHT22;7070;53.586;9.692;2023-08-20T03:05:16;18.00;90.70
13992;DHT22;7070;53.586;9.692;2023-08-20T03:07:43;18.10;90.70
13992;DHT22;7070;53.586;9.692;2023-08-20T03:10:10;18.00;90.70
13992;DHT22;7070;53.586;9.692;2023-08-20T03:12:38;18.00;90.70
13992;DHT22;7070;53.586;9.692;2023-08-20T03:15:06;18.10;90.70
13992;DHT22;7070;53.586;9.692;2023-08-20T03:17:33;18.10;90.70
13992;DHT22;7070;53.586;9.692;2023-08-20T03:20:00;18.10;91.00
13992;DHT22;7070;53.586;9.692;2023-08-20T03:22:27;18.10;90.60
13992;DHT22;7070;53.586;9.692;2023-08-20T03:24:54;18.10;90.60
13992;DHT22;7070;53.586;9.692;2023-08-20T03:27:21;18.10;90.60
13992;DHT22;7070;53.586;9.692;2023-08-20T03:29:51;18.10;90.50
13992;DHT22;7070;53.586;9.692;2023-08-20T03:32:18;18.10;90.50
13992;DHT22;7070;53.586;9.692;2023-08-20T03:34:45;18.10;90.50
13992;DHT22;7070;53.586;9.692;2023-08-20T03:37:12;18.10;90.50
13992;DHT22;7070;53.586;9.692;2023-08-20T03:39:38;18.00;90.40
13992;DHT22;7070;53.586;9.692;2023-08-20T03:42:05;18.00;90.50
13992;DHT22;7070;53.586;9.692;2023-08-20T03:44:32;18.00;90.40
13992;DHT22;7070;53.586;9.692;2023-08-20T03:47:01;17.90;90.50
13992;DHT22;7070;53.586;9.692;2023-08-20T03:49:28;18.00;90.50
13992;DHT22;7070;53.586;9.692;2023-08-20T03:51:54;17.90;90.50
13992;DHT22;7070;53.586;9.692;2023-08-20T03:54:21;17.90;90.50
13992;DHT22;7070;53.586;9.692;2023-08-20T03:56:48;18.00;90.60
13992;DHT22;7070;53.586;9.692;2023-08-20T03:59:15;17.90;90.60
13992;DHT22;7070;53.586;9.692;2023-08-20T04:01:44;17.90;90.60
13992;DHT22;7070;53.586;9.692;2023-08-20T04:04:12;17.90;90.50
13992;DHT22;7070;53.586;9.692;2023-08-20T04:06:39;17.90;90.50
13992;DHT22;7070;53.586;9.692;2023-08-20T04:09:06;17.90;90.60
13992;DHT22;7070;53.586;9.692;2023-08-20T04:11:34;17.90;90.60
13992;DHT22;7070;53.586;9.692;2023-08-20T04:14:01;17.90;90.90
13992;DHT22;7070;53.586;9.692;2023-08-20T04:16:29;17.90;90.50
13992;DHT22;7070;53.586;9.692;2023-08-20T04:18:56;17.90;90.60
13992;DHT22;7070;53.586;9.692;2023-08-20T04:21:24;17.90;90.60
13992;DHT22;7070;53.586;9.692;2023-08-20T04:23:51;17.90;90.60
13992;DHT22;7070;53.586;9.692;2023-08-20T04:26:18;17.90;90.60
13992;DHT22;7070;53.586;9.692;2023-08-20T04:28:45;17.90;90.90
13992;DHT22;7070;53.586;9.692;2023-08-20T04:31:12;17.80;90.50
13992;DHT22;7070;53.586;9.692;2023-08-20T04:33:39;17.90;90.50
13992;DHT22;7070;53.586;9.692;2023-08-20T04:36:06;17.90;90.60
13992;DHT22;7070;53.586;9.692;2023-08-20T04:38:34;17.90;90.60
13992;DHT22;7070;53.586;9.692;2023-08-20T04:41:01;17.90;90.60
13992;DHT22;7070;53.586;9.692;2023-08-20T04:43:28;17.90;90.60
13992;DHT22;7070;53.586;9.692;2023-08-20T04:45:54;17.90;90.60
13992;DHT22;7070;53.586;9.692;2023-08-20T04:48:21;17.90;90.60
13992;DHT22;7070;53.586;9.692;2023-08-20T04:50:48;17.90;90.60
13992;DHT22;7070;53.586;9.692;2023-08-20T04:53:15;18.00;90.70
13992;DHT22;7070;53.586;9.692;2023-08-20T04:55:43;18.00;90.70
13992;DHT22;7070;53.586;9.692;2023-08-20T04:58:10;18.10;90.70
13992;DHT22;7070;53.586;9.692;2023-08-20T05:00:37;18.10;90.80
13992;DHT22;7070;53.586;9.692;2023-08-20T05:03:04;18.10;90.70
13992;DHT22;7070;53.586;9.692;2023-08-20T05:05:31;18.10;90.80
13992;DHT22;7070;53.586;9.692;2023-08-20T05:07:58;18.20;90.90
13992;DHT22;7070;53.586;9.692;2023-08-20T05:10:24;18.20;90.80
13992;DHT22;7070;53.586;9.692;2023-08-20T05:12:53;18.30;90.80
13992;DHT22;7070;53.586;9.692;2023-08-20T05:15:19;18.30;90.80
13992;DHT22;7070;53.586;9.692;2023-08-20T05:17:47;18.40;91.20
13992;DHT22;7070;53.586;9.692;2023-08-20T05:20:13;18.40;90.90
13992;DHT22;7070;53.586;9.692;2023-08-20T05:22:41;18.40;90.80
13992;DHT22;7070;53.586;9.692;2023-08-20T05:25:08;18.50;90.90
13992;DHT22;7070;53.586;9.692;2023-08-20T05:27:35;18.50;90.90
13992;DHT22;7070;53.586;9.692;2023-08-20T05:30:04;18.60;90.90
13992;DHT22;7070;53.586;9.692;2023-08-20T05:32:31;18.70;90.90
13992;DHT22;7070;53.586;9.692;2023-08-20T05:34:58;18.70;91.00
13992;DHT22;7070;53.586;9.692;2023-08-20T05:37:25;18.80;91.00
13992;DHT22;7070;53.586;9.692;2023-08-20T05:39:52;18.80;91.00
13992;DHT22;7070;53.586;9.692;2023-08-20T05:42:19;18.90;91.00
13992;DHT22;7070;53.586;9.692;2023-08-20T05:44:45;19.00;91.10
13992;DHT22;7070;53.586;9.692;2023-08-20T05:47:14;19.00;91.10
13992;DHT22;7070;53.586;9.692;2023-08-20T05:49:40;19.10;91.10
13992;DHT22;7070;53.586;9.692;2023-08-20T05:52:07;19.20;91.10
13992;DHT22;7070;53.586;9.692;2023-08-20T05:54:34;19.20;91.10
13992;DHT22;7070;53.586;9.692;2023-08-20T05:57:01;19.30;91.10
13992;DHT22;7070;53.586;9.692;2023-08-20T05:59:28;19.40;91.10
13992;DHT22;7070;53.586;9.692;2023-08-20T06:01:55;19.40;91.10
13992;DHT22;7070;53.586;9.692;2023-08-20T06:04:23;19.50;91.20
13992;DHT22;7070;53.586;9.692;2023-08-20T06:06:50;19.60;91.30
13992;DHT22;7070;53.586;9.692;2023-08-20T06:09:17;19.70;91.30
13992;DHT22;7070;53.586;9.692;2023-08-20T06:11:44;19.80;91.20
13992;DHT22;7070;53.586;9.692;2023-08-20T06:14:11;19.90;91.20
13992;DHT22;7070;53.586;9.692;2023-08-20T06:16:37;20.00;91.20
13992;DHT22;7070;53.586;9.692;2023-08-20T06:19:04;20.00;91.10
13992;DHT22;7070;53.586;9.692;2023-08-20T06:21:32;20.10;91.10
13992;DHT22;7070;53.586;9.692;2023-08-20T06:24:00;20.20;91.10
13992;DHT22;7070;53.586;9.692;2023-08-20T06:26:27;20.30;91.10
13992;DHT22;7070;53.586;9.692;2023-08-20T06:28:54;20.30;91.00
13992;DHT22;7070;53.586;9.692;2023-08-20T06:31:21;20.40;91.10
13992;DHT22;7070;53.586;9.692;2023-08-20T06:33:48;20.40;91.00
13992;DHT22;7070;53.586;9.692;2023-08-20T06:36:15;20.50;91.00
13992;DHT22;7070;53.586;9.692;2023-08-20T06:38:43;20.60;91.00
13992;DHT22;7070;53.586;9.692;2023-08-20T06:41:10;20.70;90.90
13992;DHT22;7070;53.586;9.692;2023-08-20T06:43:37;20.80;90.90
13992;DHT22;7070;53.586;9.692;2023-08-20T06:46:04;20.90;90.90
13992;DHT22;7070;53.586;9.692;2023-08-20T06:48:31;20.90;90.90
13992;DHT22;7070;53.586;9.692;2023-08-20T06:50:58;21.10;90.90
13992;DHT22;7070;53.586;9.692;2023-08-20T06:53:24;21.10;90.80
13992;DHT22;7070;53.586;9.692;2023-08-20T06:55:53;21.20;90.70
13992;DHT22;7070;53.586;9.692;2023-08-20T06:58:19;21.20;90.70
13992;DHT22;7070;53.586;9.692;2023-08-20T07:00:46;21.30;90.70
13992;DHT22;7070;53.586;9.692;2023-08-20T07:03:13;21.30;90.60
13992;DHT22;7070;53.586;9.692;2023-08-20T07:05:40;21.40;90.70
13992;DHT22;7070;53.586;9.692;2023-08-20T07:08:07;21.50;90.70
13992;DHT22;7070;53.586;9.692;2023-08-20T07:10:33;21.50;90.60
13992;DHT22;7070;53.586;9.692;2023-08-20T07:13:02;21.60;90.60
13992;DHT22;7070;53.586;9.692;2023-08-20T07:15:29;21.70;90.60
13992;DHT22;7070;53.586;9.692;2023-08-20T07:17:56;21.80;90.50
13992;DHT22;7070;53.586;9.692;2023-08-20T07:20:23;21.80;90.30
13992;DHT22;7070;53.586;9.692;2023-08-20T07:22:50;21.90;90.30
13992;DHT22;7070;53.586;9.692;2023-08-20T07:25:16;22.00;90.40
13992;DHT22;7070;53.586;9.692;2023-08-20T07:27:43;22.00;90.30
13992;DHT22;7070;53.586;9.692;2023-08-20T07:30:12;22.10;90.20
13992;DHT22;7070;53.586;9.692;2023-08-20T07:32:39;22.20;90.10
13992;DHT22;7070;53.586;9.692;2023-08-20T07:35:06;22.20;90.10
13992;DHT22;7070;53.586;9.692;2023-08-20T07:37:33;22.30;90.20
13992;DHT22;7070;53.586;9.692;2023-08-20T07:40:00;22.40;90.20
13992;DHT22;7070;53.586;9.692;2023-08-20T07:42:27;22.50;90.10
13992;DHT22;7070;53.586;9.692;2023-08-20T07:44:54;22.60;90.00
13992;DHT22;7070;53.586;9.692;2023-08-20T07:47:22;22.70;89.70
13992;DHT22;7070;53.586;9.692;2023-08-20T07:49:49;22.80;89.40
13992;DHT22;7070;53.586;9.692;2023-08-20T07:52:16;22.70;89.00
13992;DHT22;7070;53.586;9.692;2023-08-20T07:54:43;22.80;89.00
13992;DHT22;7070;53.586;9.692;2023-08-20T07:57:10;22.80;89.20
13992;DHT22;7070;53.586;9.692;2023-08-20T07:59:37;22.90;89.20
13992;DHT22;7070;53.586;9.692;2023-08-20T08:02:04;23.00;89.10
13992;DHT22;7070;53.586;9.692;2023-08-20T08:04:33;23.00;88.90
13992;DHT22;7070;53.586;9.692;2023-08-20T08:07:00;23.10;88.50
13992;DHT22;7070;53.586;9.692;2023-08-20T08:09:28;23.00;88.00
13992;DHT22;7070;53.586;9.692;2023-08-20T08:11:55;23.10;87.80
13992;DHT22;7070;53.586;9.692;2023-08-20T08:14:22;23.00;87.40
13992;DHT22;7070;53.586;9.692;2023-08-20T08:16:49;23.00;87.20
13992;DHT22;7070;53.586;9.692;2023-08-20T08:19:16;22.90;87.00
13992;DHT22;7070;53.586;9.692;2023-08-20T08:21:45;22.90;86.90
13992;DHT22;7070;53.586;9.692;2023-08-20T08:24:13;22.80;86.70
13992;DHT22;7070;53.586;9.692;2023-08-20T08:26:40;22.80;86.70
13992;DHT22;7070;53.586;9.692;2023-08-20T08:29:07;22.70;86.70
13992;DHT22;7070;53.586;9.692;2023-08-20T08:31:35;22.60;86.50
13992;DHT22;7070;53.586;9.692;2023-08-20T08:34:02;22.60;86.60
13992;DHT22;7070;53.586;9.692;2023-08-20T08:36:29;22.60;86.50
13992;DHT22;7070;53.586;9.692;2023-08-20T08:38:57;22.60;87.30
13992;DHT22;7070;53.586;9.692;2023-08-20T08:41:25;22.60;86.50
13992;DHT22;7070;53.586;9.692;2023-08-20T08:43:53;22.60;86.60
13992;DHT22;7070;53.586;9.692;2023-08-20T08:46:22;22.60;86.50
13992;DHT22;7070;53.586;9.692;2023-08-20T08:48:51;22.50;86.50
13992;DHT22;7070;53.586;9.692;2023-08-20T08:51:19;22.50;86.60
13992;DHT22;7070;53.586;9.692;2023-08-20T08:53:46;22.60;86.80
13992;DHT22;7070;53.586;9.692;2023-08-20T08:56:14;22.60;86.60
13992;DHT22;7070;53.586;9.692;2023-08-20T08:58:41;22.60;86.60
13992;DHT22;7070;53.586;9.692;2023-08-20T09:01:08;22.70;86.70
13992;DHT22;7070;53.586;9.692;2023-08-20T09:03:35;22.70;86.70
13992;DHT22;7070;53.586;9.692;2023-08-20T09:06:02;22.80;87.70
13992;DHT22;7070;53.586;9.692;2023-08-20T09:08:34;22.80;86.70
13992;DHT22;7070;53.586;9.692;2023-08-20T09:11:02;22.90;87.40
13992;DHT22;7070;53.586;9.692;2023-08-20T09:13:35;22.90;86.60
13992;DHT22;7070;53.586;9.692;2023-08-20T09:16:06;23.00;86.50
13992;DHT22;7070;53.586;9.692;2023-08-20T09:18:37;23.00;86.40
13992;DHT22;7070;53.586;9.692;2023-08-20T09:21:06;23.00;87.10
13992;DHT22;7070;53.586;9.692;2023-08-20T09:23:34;23.10;86.30
13992;DHT22;7070;53.586;9.692;2023-08-20T09:26:02;23.20;87.00
13992;DHT22;7070;53.586;9.692;2023-08-20T09:28:29;23.30;86.10
13992;DHT22;7070;53.586;9.692;2023-08-20T09:30:58;23.30;86.00
13992;DHT22;7070;53.586;9.692;2023-08-20T09:33:29;23.40;86.00
13992;DHT22;7070;53.586;9.692;2023-08-20T09:35:56;23.40;85.80
13992;DHT22;7070;53.586;9.692;2023-08-20T09:38:24;23.50;85.80
13992;DHT22;7070;53.586;9.692;2023-08-20T09:40:52;23.60;85.60
13992;DHT22;7070;53.586;9.692;2023-08-20T09:43:23;23.60;85.50
13992;DHT22;7070;53.586;9.692;2023-08-20T09:45:54;23.60;85.30
13992;DHT22;7070;53.586;9.692;2023-08-20T09:48:23;23.80;85.40
13992;DHT22;7070;53.586;9.692;2023-08-20T09:50:52;23.80;85.10
13992;DHT22;7070;53.586;9.692;2023-08-20T09:53:27;23.80;84.90
13992;DHT22;7070;53.586;9.692;2023-08-20T09:55:58;23.80;84.70
13992;DHT22;7070;53.586;9.692;2023-08-20T09:58:27;23.90;84.70
13992;DHT22;7070;53.586;9.692;2023-08-20T10:00:56;24.00;84.60
13992;DHT22;7070;53.586;9.692;2023-08-20T10:03:24;24.00;84.50
13992;DHT22;7070;53.586;9.692;2023-08-20T10:05:51;24.10;85.30
13992;DHT22;7070;53.586;9.692;2023-08-20T10:08:19;24.10;84.40
13992;DHT22;7070;53.586;9.692;2023-08-20T10:10:46;24.20;84.20
13992;DHT22;7070;53.586;9.692;2023-08-20T10:13:14;24.20;84.00
13992;DHT22;7070;53.586;9.692;2023-08-20T10:15:41;24.30;83.80
13992;DHT22;7070;53.586;9.692;2023-08-20T10:18:09;24.30;83.60
13992;DHT22;7070;53.586;9.692;2023-08-20T10:20:38;24.40;83.50
13992;DHT22;7070;53.586;9.692;2023-08-20T10:23:05;24.40;83.50
13992;DHT22;7070;53.586;9.692;2023-08-20T10:25:40;24.50;83.40
13992;DHT22;7070;53.586;9.692;2023-08-20T10:28:21;24.50;83.40
13992;DHT22;7070;53.586;9.692;2023-08-20T10:31:08;24.60;83.40
13992;DHT22;7070;53.586;9.692;2023-08-20T10:33:35;24.70;83.30
13992;DHT22;7070;53.586;9.692;2023-08-20T10:36:17;24.80;83.20
13992;DHT22;7070;53.586;9.692;2023-08-20T10:38:45;24.80;83.90
13992;DHT22;7070;53.586;9.692;2023-08-20T10:41:13;24.90;83.00
13992;DHT22;7070;53.586;9.692;2023-08-20T10:43:47;25.00;82.90
13992;DHT22;7070;53.586;9.692;2023-08-20T10:46:16;25.10;82.80
13992;DHT22;7070;53.586;9.692;2023-08-20T10:48:46;25.10;82.50
13992;DHT22;7070;53.586;9.692;2023-08-20T10:51:16;25.20;82.50
13992;DHT22;7070;53.586;9.692;2023-08-20T10:53:48;25.30;82.40
13992;DHT22;7070;53.586;9.692;2023-08-20T10:56:38;25.30;82.20
13992;DHT22;7070;53.586;9.692;2023-08-20T10:59:06;25.50;82.40
13992;DHT22;7070;53.586;9.692;2023-08-20T11:01:34;25.60;82.50
13992;DHT22;7070;53.586;9.692;2023-08-20T11:04:03;25.80;82.70
13992;DHT22;7070;53.586;9.692;2023-08-20T11:06:34;25.90;82.20
13992;DHT22;7070;53.586;9.692;2023-08-20T11:09:01;26.10;81.80
13992;DHT22;7070;53.586;9.692;2023-08-20T11:11:31;26.20;81.30
13992;DHT22;7070;53.586;9.692;2023-08-20T11:14:05;26.40;81.00
13992;DHT22;7070;53.586;9.692;2023-08-20T11:16:32;26.50;81.20
13992;DHT22;7070;53.586;9.692;2023-08-20T11:18:59;26.60;80.60
13992;DHT22;7070;53.586;9.692;2023-08-20T11:21:28;26.70;80.10
13992;DHT22;7070;53.586;9.692;2023-08-20T11:23:57;26.80;80.00
13992;DHT22;7070;53.586;9.692;2023-08-20T11:26:24;26.90;79.90
13992;DHT22;7070;53.586;9.692;2023-08-20T11:28:51;26.90;79.80
13992;DHT22;7070;53.586;9.692;2023-08-20T11:31:18;27.00;79.60
13992;DHT22;7070;53.586;9.692;2023-08-20T11:33:45;27.10;79.50
13992;DHT22;7070;53.586;9.692;2023-08-20T11:36:15;27.10;80.00
13992;DHT22;7070;53.586;9.692;2023-08-20T11:38:41;27.20;79.10
13992;DHT22;7070;53.586;9.692;2023-08-20T11:41:10;27.30;78.60
13992;DHT22;7070;53.586;9.692;2023-08-20T11:43:36;27.30;78.60
13992;DHT22;7070;53.586;9.692;2023-08-20T11:46:03;27.40;78.40
13992;DHT22;7070;53.586;9.692;2023-08-20T11:48:30;27.50;78.10
13992;DHT22;7070;53.586;9.692;2023-08-20T11:50:57;27.50;77.90
13992;DHT22;7070;53.586;9.692;2023-08-20T11:53:24;27.60;77.60
13992;DHT22;7070;53.586;9.692;2023-08-20T11:55:55;27.70;77.30
13992;DHT22;7070;53.586;9.692;2023-08-20T11:58:23;27.70;77.10
13992;DHT22;7070;53.586;9.692;2023-08-20T12:00:50;27.70;77.10
13992;DHT22;7070;53.586;9.692;2023-08-20T12:03:18;27.70;76.80
13992;DHT22;7070;53.586;9.692;2023-08-20T12:05:46;27.70;76.60
13992;DHT22;7070;53.586;9.692;2023-08-20T12:08:15;27.70;76.60
13992;DHT22;7070;53.586;9.692;2023-08-20T12:10:43;27.70;77.00
13992;DHT22;7070;53.586;9.692;2023-08-20T12:13:10;27.70;76.90
13992;DHT22;7070;53.586;9.692;2023-08-20T12:15:38;27.70;76.90
13992;DHT22;7070;53.586;9.692;2023-08-20T12:18:06;27.80;77.00
13992;DHT22;7070;53.586;9.692;2023-08-20T12:20:35;27.90;76.60
13992;DHT22;7070;53.586;9.692;2023-08-20T12:23:04;28.00;76.10
13992;DHT22;7070;53.586;9.692;2023-08-20T12:25:32;28.00;75.40
13992;DHT22;7070;53.586;9.692;2023-08-20T12:28:00;28.10;75.40
13992;DHT22;7070;53.586;9.692;2023-08-20T12:30:27;28.00;75.30
13992;DHT22;7070;53.586;9.692;2023-08-20T12:32:55;28.10;76.00
13992;DHT22;7070;53.586;9.692;2023-08-20T12:35:22;28.00;75.20
13992;DHT22;7070;53.586;9.692;2023-08-20T12:37:49;28.00;75.20
13992;DHT22;7070;53.586;9.692;2023-08-20T12:40:16;28.00;75.60
13992;DHT22;7070;53.586;9.692;2023-08-20T12:42:43;28.10;76.60
13992;DHT22;7070;53.586;9.692;2023-08-20T12:45:10;28.10;75.70
13992;DHT22;7070;53.586;9.692;2023-08-20T12:47:39;28.10;75.30
13992;DHT22;7070;53.586;9.692;2023-08-20T12:50:08;28.20;75.00
13992;DHT22;7070;53.586;9.692;2023-08-20T12:52:35;28.20;75.00
13992;DHT22;7070;53.586;9.692;2023-08-20T12:55:02;28.30;74.70
13992;DHT22;7070;53.586;9.692;2023-08-20T12:57:30;28.30;74.60
13992;DHT22;7070;53.586;9.692;2023-08-20T12:59:56;28.30;74.60
13992;DHT22;7070;53.586;9.692;2023-08-20T13:02:25;28.30;74.50
13992;DHT22;7070;53.586;9.692;2023-08-20T13:04:52;28.30;74.50
13992;DHT22;7070;53.586;9.692;2023-08-20T13:07:21;28.30;75.20
13992;DHT22;7070;53.586;9.692;2023-08-20T13:09:48;28.20;74.70
13992;DHT22;7070;53.586;9.692;2023-08-20T13:12:16;28.30;74.80
13992;DHT22;7070;53.586;9.692;2023-08-20T13:14:45;28.20;74.80
13992;DHT22;7070;53.586;9.692;2023-08-20T13:17:12;28.20;74.40
13992;DHT22;7070;53.586;9.692;2023-08-20T13:19:39;28.20;74.30
13992;DHT22;7070;53.586;9.692;2023-08-20T13:22:06;28.20;74.20
13992;DHT22;7070;53.586;9.692;2023-08-20T13:24:34;28.20;74.00
13992;DHT22;7070;53.586;9.692;2023-08-20T13:27:01;28.20;74.10
13992;DHT22;7070;53.586;9.692;2023-08-20T13:29:28;28.30;74.10
13992;DHT22;7070;53.586;9.692;2023-08-20T13:31:55;28.20;74.00
13992;DHT22;7070;53.586;9.692;2023-08-20T13:34:22;28.20;73.80
13992;DHT22;7070;53.586;9.692;2023-08-20T13:36:49;28.20;73.70
13992;DHT22;7070;53.586;9.692;2023-08-20T13:39:16;28.30;73.70
13992;DHT22;7070;53.586;9.692;2023-08-20T13:41:46;28.30;73.60
13992;DHT22;7070;53.586;9.692;2023-08-20T13:44:13;28.30;73.70
13992;DHT22;7070;53.586;9.692;2023-08-20T13:46:39;28.30;73.60
13992;DHT22;7070;53.586;9.692;2023-08-20T13:49:06;28.30;73.60
13992;DHT22;7070;53.586;9.692;2023-08-20T13:51:33;28.40;73.80
13992;DHT22;7070;53.586;9.692;2023-08-20T13:54:00;28.40;73.80
13992;DHT22;7070;53.586;9.692;2023-08-20T13:56:27;28.40;73.40
13992;DHT22;7070;53.586;9.692;2023-08-20T13:58:55;28.50;73.40
13992;DHT22;7070;53.586;9.692;2023-08-20T14:01:22;28.50;74.10
13992;DHT22;7070;53.586;9.692;2023-08-20T14:03:49;28.50;73.10
13992;DHT22;7070;53.586;9.692;2023-08-20T14:06:16;28.50;73.00
13992;DHT22;7070;53.586;9.692;2023-08-20T14:08:43;28.50;72.60
13992;DHT22;7070;53.586;9.692;2023-08-20T14:11:10;28.30;72.50
13992;DHT22;7070;53.586;9.692;2023-08-20T14:13:37;28.30;73.00
13992;DHT22;7070;53.586;9.692;2023-08-20T14:16:05;28.20;73.00
13992;DHT22;7070;53.586;9.692;2023-08-20T14:18:32;28.30;73.00
13992;DHT22;7070;53.586;9.692;2023-08-20T14:20:59;28.20;72.60
13992;DHT22;7070;53.586;9.692;2023-08-20T14:23:26;28.20;72.80
13992;DHT22;7070;53.586;9.692;2023-08-20T14:25:53;28.20;72.70
13992;DHT22;7070;53.586;9.692;2023-08-20T14:28:21;28.20;72.60
13992;DHT22;7070;53.586;9.692;2023-08-20T14:30:48;28.20;72.40
13992;DHT22;7070;53.586;9.692;2023-08-20T14:33:17;28.10;72.40
13992;DHT22;7070;53.586;9.692;2023-08-20T14:35:44;28.10;72.30
13992;DHT22;7070;53.586;9.692;2023-08-20T14:38:11;28.00;72.10
13992;DHT22;7070;53.586;9.692;2023-08-20T14:40:39;27.90;72.00
13992;DHT22;7070;53.586;9.692;2023-08-20T14:43:06;27.80;72.60
13992;DHT22;7070;53.586;9.692;2023-08-20T14:45:33;27.70;71.60
13992;DHT22;7070;53.586;9.692;2023-08-20T14:48:00;27.60;71.60
13992;DHT22;7070;53.586;9.692;2023-08-20T14:50:29;27.50;71.20
13992;DHT22;7070;53.586;9.692;2023-08-20T14:52:56;27.50;71.50
13992;DHT22;7070;53.586;9.692;2023-08-20T14:55:23;27.40;71.60
13992;DHT22;7070;53.586;9.692;2023-08-20T14:57:56;27.40;71.50
13992;DHT22;7070;53.586;9.692;2023-08-20T15:00:26;27.30;71.90
13992;DHT22;7070;53.586;9.692;2023-08-20T15:02:55;27.10;71.40
13992;DHT22;7070;53.586;9.692;2023-08-20T15:05:22;27.10;71.80
13992;DHT22;7070;53.586;9.692;2023-08-20T15:08:04;27.10;72.20
13992;DHT22;7070;53.586;9.692;2023-08-20T15:10:34;27.00;72.50
13992;DHT22;7070;53.586;9.692;2023-08-20T15:13:00;26.90;72.70
13992;DHT22;7070;53.586;9.692;2023-08-20T15:15:28;26.90;72.60
13992;DHT22;7070;53.586;9.692;2023-08-20T15:17:55;26.80;72.70
13992;DHT22;7070;53.586;9.692;2023-08-20T15:20:22;26.80;72.90
13992;DHT22;7070;53.586;9.692;2023-08-20T15:22:49;26.70;73.00
13992;DHT22;7070;53.586;9.692;2023-08-20T15:25:19;26.70;73.20
13992;DHT22;7070;53.586;9.692;2023-08-20T15:27:46;26.60;73.30
13992;DHT22;7070;53.586;9.692;2023-08-20T15:30:15;26.60;73.20
13992;DHT22;7070;53.586;9.692;2023-08-20T15:32:43;26.50;73.30
13992;DHT22;7070;53.586;9.692;2023-08-20T15:35:10;26.50;74.20
13992;DHT22;7070;53.586;9.692;2023-08-20T15:37:37;26.50;73.80
13992;DHT22;7070;53.586;9.692;2023-08-20T15:40:05;26.50;73.80
13992;DHT22;7070;53.586;9.692;2023-08-20T15:42:39;26.50;74.00
13992;DHT22;7070;53.586;9.692;2023-08-20T15:45:08;26.50;74.00
13992;DHT22;7070;53.586;9.692;2023-08-20T15:47:38;26.50;73.90
13992;DHT22;7070;53.586;9.692;2023-08-20T15:50:05;26.50;73.80
13992;DHT22;7070;53.586;9.692;2023-08-20T15:52:34;26.40;73.50